This is the latest recevied weather packets stored in our database for station/object LRCT. If no packets are shown the sender has not sent any weather packets the latest 10 day(s).
| Time | Temp. | Humidity | Pressure | Rain* | Wind** | Luminosity | Snow |
|---|---|---|---|---|---|---|---|
| 1777616338 | 5° C | 76% | 1026 hPa | - | - | - | - |
| 1777615436 | 5° C | 76% | 1026 hPa | - | - | - | - |
| 1777614537 | 5° C | 76% | 1026 hPa | - | - | - | - |
| 1777613637 | 2.22° C | 93% | 1026 hPa | - | - | - | - |
| 1777612737 | 2.22° C | 93% | 1026 hPa | - | - | - | - |
| 1777611836 | 2.22° C | 93% | 1026 hPa | - | - | - | - |
| 1777610936 | 0° C | 100% | 1026 hPa | - | - | - | - |
| 1777610036 | 0° C | 100% | 1026 hPa | - | - | - | - |
| 1777609136 | 0° C | 100% | 1026 hPa | - | - | - | - |
| 1777608237 | 0° C | 100% | 1026 hPa | - | - | - | - |
| 1777607336 | 0° C | 100% | 1026 hPa | - | - | - | - |
| 1777606437 | 0° C | 100% | 1026 hPa | - | - | - | - |
| 1777605536 | 0° C | 100% | 1026 hPa | - | - | - | - |
| 1777604637 | 0° C | 100% | 1026 hPa | - | - | - | - |
| 1777603734 | 0° C | 100% | 1026 hPa | - | - | - | - |
| 1777585737 | 5° C | 81% | 1026 hPa | - | - | - | - |
| 1777584837 | 5° C | 81% | 1026 hPa | - | - | - | - |
| 1777583937 | 5° C | 81% | 1026 hPa | - | - | - | - |
| 1777583039 | 5° C | 81% | 1026 hPa | - | - | - | - |
| 1777570437 | 7.22° C | 71% | 1024 hPa | - | - | - | - |
| 1777569536 | 7.22° C | 71% | 1024 hPa | - | - | - | - |
| 1777564137 | 12.22° C | 41% | 1023 hPa | - | - | - | - |
| 1777563237 | 12.22° C | 41% | 1023 hPa | - | - | - | - |
| 1777562336 | 12.22° C | 41% | 1023 hPa | - | - | - | - |
| 1777561437 | 12.22° C | 41% | 1023 hPa | - | - | - | - |
* Rain since midnight (hover to see other rain measurements)
** Current wind speed in m/s (hover to see current wind gust speed)